createdAt,value
2023-04-12T00:02:35.863Z,62.50
2023-04-12T00:05:39.249Z,62.50
2023-04-12T00:08:42.845Z,62.80
2023-04-12T00:11:45.971Z,63.30
2023-04-12T00:14:50.520Z,63.20
2023-04-12T00:17:53.593Z,63.30
2023-04-12T00:20:56.825Z,63.30
2023-04-12T00:23:59.962Z,63.90
2023-04-12T00:27:03.115Z,63.30
2023-04-12T00:30:09.432Z,63.50
2023-04-12T00:33:12.565Z,63.30
2023-04-12T00:36:15.919Z,63.40
2023-04-12T00:39:19.034Z,63.30
2023-04-12T00:42:22.174Z,63.30
2023-04-12T00:45:27.430Z,63.20
2023-04-12T00:48:32.127Z,63.00
2023-04-12T00:51:35.281Z,63.20
2023-04-12T00:54:39.772Z,63.00
2023-04-12T00:57:42.924Z,62.70
2023-04-12T01:00:50.496Z,62.60
2023-04-12T01:04:01.385Z,62.60
2023-04-12T01:07:15.802Z,62.50
2023-04-12T01:10:31.870Z,62.40
2023-04-12T01:13:41.156Z,62.60
2023-04-12T01:16:51.306Z,63.80
2023-04-12T01:19:59.321Z,63.30
2023-04-12T01:23:19.004Z,63.70
2023-04-12T01:26:34.526Z,64.30
2023-04-12T01:29:39.902Z,64.40
2023-04-12T01:32:47.701Z,64.40
2023-04-12T01:35:52.570Z,64.70
2023-04-12T01:38:57.159Z,64.80
2023-04-12T01:42:00.967Z,64.90
2023-04-12T01:45:06.660Z,65.00
2023-04-12T01:48:12.711Z,64.90
2023-04-12T01:51:20.415Z,65.10
2023-04-12T01:54:28.492Z,65.30
2023-04-12T01:57:32.504Z,65.30
2023-04-12T02:00:37.917Z,65.50
2023-04-12T02:03:43.452Z,65.40
2023-04-12T02:06:48.516Z,65.50
2023-04-12T02:09:51.632Z,65.50
2023-04-12T02:12:55.510Z,65.60
2023-04-12T02:15:59.995Z,65.50
2023-04-12T02:19:04.052Z,65.90
2023-04-12T02:22:08.384Z,66.20
2023-04-12T02:25:11.698Z,66.60
2023-04-12T02:28:15.130Z,66.80
2023-04-12T02:31:19.715Z,66.80
2023-04-12T02:34:22.840Z,66.80
2023-04-12T02:37:27.532Z,67.10
2023-04-12T02:40:30.724Z,67.00
2023-04-12T02:43:34.279Z,66.90
2023-04-12T02:46:38.774Z,67.00
2023-04-12T02:49:41.888Z,67.60
2023-04-12T02:52:46.941Z,67.70
2023-04-12T02:55:50.129Z,68.20
2023-04-12T02:58:53.249Z,68.50
2023-04-12T03:01:57.921Z,68.90
2023-04-12T03:05:03.538Z,69.40
2023-04-12T03:08:07.070Z,69.60
2023-04-12T03:11:10.128Z,70.00
2023-04-12T03:14:13.186Z,71.30
2023-04-12T03:17:17.610Z,71.70
2023-04-12T03:20:20.701Z,72.20
2023-04-12T03:23:23.886Z,74.50
2023-04-12T03:26:27.635Z,75.00
2023-04-12T03:29:31.027Z,76.00
2023-04-12T03:32:35.669Z,77.00
2023-04-12T03:35:38.848Z,78.40
2023-04-12T03:38:43.409Z,78.20
2023-04-12T03:41:46.685Z,78.80
2023-04-12T03:44:49.799Z,79.20
2023-04-12T03:47:54.372Z,79.70
2023-04-12T03:50:59.954Z,80.10
2023-04-12T03:54:04.402Z,80.50
2023-04-12T03:57:07.690Z,81.00
2023-04-12T04:00:12.561Z,81.40
2023-04-12T04:03:17.623Z,82.40
2023-04-12T04:06:20.934Z,83.50
2023-04-12T04:09:24.113Z,84.60
2023-04-12T04:12:28.172Z,84.00
2023-04-12T04:15:31.312Z,84.20
2023-04-12T04:18:36.181Z,84.40
2023-04-12T04:21:40.604Z,84.30
2023-04-12T04:24:43.842Z,84.50
2023-04-12T04:27:47.108Z,84.40
2023-04-12T04:30:51.678Z,84.00
2023-04-12T04:33:56.318Z,83.80
2023-04-12T04:36:59.715Z,83.90
2023-04-12T04:40:07.842Z,84.30
2023-04-12T04:43:13.951Z,84.60
2023-04-12T04:46:17.456Z,84.60
2023-04-12T04:49:21.955Z,83.80
2023-04-12T04:52:25.262Z,83.90
2023-04-12T04:55:29.701Z,84.40
2023-04-12T04:58:32.847Z,85.00
2023-04-12T05:01:36.778Z,85.30
2023-04-12T05:04:41.534Z,85.50
2023-04-12T05:07:45.007Z,85.70
2023-04-12T05:10:52.079Z,85.80
2023-04-12T05:13:55.187Z,86.00
2023-04-12T05:16:58.408Z,86.00
2023-04-12T05:20:06.547Z,86.10
2023-04-12T05:23:09.690Z,85.80
2023-04-12T05:26:13.055Z,85.70
2023-04-12T05:29:16.213Z,85.70
2023-04-12T05:32:19.296Z,86.10
2023-04-12T05:35:23.817Z,86.30
2023-04-12T05:38:27.266Z,86.10
2023-04-12T05:41:31.355Z,85.50
2023-04-12T05:44:36.674Z,85.00
2023-04-12T05:47:39.818Z,84.30
2023-04-12T05:50:51.926Z,84.10
2023-04-12T05:53:55.012Z,84.20
2023-04-12T05:56:58.113Z,83.90
2023-04-12T06:00:01.298Z,83.80
2023-04-12T06:03:04.829Z,84.20
2023-04-12T06:06:10.252Z,81.70
2023-04-12T06:09:14.747Z,81.60
2023-04-12T06:12:18.038Z,76.40
2023-04-12T06:15:21.168Z,71.30
2023-04-12T06:18:24.218Z,65.30
2023-04-12T06:21:28.996Z,61.90
2023-04-12T06:24:32.151Z,60.00
2023-04-12T06:27:35.220Z,60.20
2023-04-12T06:30:38.831Z,60.40
2023-04-12T06:33:42.027Z,61.30
2023-04-12T06:36:47.703Z,60.10
2023-04-12T06:39:51.224Z,60.60
2023-04-12T06:42:54.323Z,61.20
2023-04-12T06:45:58.366Z,62.00
2023-04-12T06:49:01.580Z,62.20
2023-04-12T06:52:06.361Z,61.60
2023-04-12T06:55:10.480Z,61.60
2023-04-12T06:58:13.625Z,61.10
2023-04-12T07:01:17.852Z,60.90
2023-04-12T07:04:21.273Z,60.90
2023-04-12T07:07:25.866Z,60.50
2023-04-12T07:10:28.953Z,59.00
2023-04-12T07:13:32.117Z,57.80
2023-04-12T07:16:35.212Z,52.70
2023-04-12T07:19:38.309Z,48.90
2023-04-12T07:22:42.742Z,47.20
2023-04-12T07:25:46.095Z,45.40
2023-04-12T07:28:49.230Z,41.90
2023-04-12T07:31:52.359Z,40.20
2023-04-12T07:34:55.513Z,38.10
2023-04-12T07:38:00.155Z,35.10
2023-04-12T07:41:03.328Z,31.10
2023-04-12T07:44:06.785Z,28.60
2023-04-12T07:47:09.972Z,26.80
2023-04-12T07:50:13.503Z,25.20
2023-04-12T07:53:22.205Z,23.50
2023-04-12T07:56:25.724Z,22.20
2023-04-12T07:59:29.041Z,21.50
2023-04-12T08:02:32.283Z,21.60
2023-04-12T08:05:36.035Z,22.50
2023-04-12T08:08:40.670Z,25.00
2023-04-12T08:11:43.812Z,26.80
2023-04-12T08:14:46.881Z,28.60
2023-04-12T08:17:50.046Z,30.00
2023-04-12T08:20:53.193Z,30.60
2023-04-12T08:23:58.043Z,32.30
2023-04-12T08:27:01.706Z,33.20
2023-04-12T08:30:05.214Z,33.70
2023-04-12T08:33:08.313Z,34.90
2023-04-12T08:36:12.026Z,36.00
2023-04-12T08:39:16.494Z,36.50
2023-04-12T08:42:20.322Z,36.90
2023-04-12T08:45:26.782Z,36.60
2023-04-12T08:48:29.937Z,36.30
2023-04-12T08:51:36.293Z,36.60
2023-04-12T08:54:40.788Z,36.00
2023-04-12T08:57:44.520Z,35.80
2023-04-12T09:00:48.254Z,31.70
2023-04-12T09:03:51.457Z,29.10
2023-04-12T09:06:54.709Z,27.40
2023-04-12T09:09:59.936Z,26.60
2023-04-12T09:13:03.974Z,26.90
2023-04-12T09:16:07.569Z,26.90
2023-04-12T09:19:10.853Z,28.20
2023-04-12T09:22:13.946Z,29.80
2023-04-12T09:25:18.427Z,30.90
2023-04-12T09:28:26.913Z,31.50
2023-04-12T09:31:30.094Z,31.90
2023-04-12T09:34:35.038Z,32.40
2023-04-12T09:37:39.186Z,33.20
2023-04-12T09:40:43.843Z,33.60
2023-04-12T09:43:47.137Z,34.40
2023-04-12T09:46:53.164Z,35.00
2023-04-12T09:49:56.433Z,35.00
2023-04-12T09:53:00.385Z,34.50
2023-04-12T09:56:05.919Z,34.40
2023-04-12T09:59:09.276Z,34.00
2023-04-12T10:02:16.883Z,33.20
2023-04-12T10:05:23.063Z,33.40
2023-04-12T10:08:27.462Z,32.80
2023-04-12T10:11:34.039Z,32.70
2023-04-12T10:14:37.362Z,33.10
2023-04-12T10:17:45.264Z,31.40
2023-04-12T10:20:48.702Z,32.20
2023-04-12T10:23:52.175Z,31.20
2023-04-12T10:27:00.237Z,30.90
2023-04-12T10:30:22.280Z,31.80
2023-04-12T10:33:27.695Z,32.50
2023-04-12T10:36:52.630Z,32.30
2023-04-12T10:39:56.290Z,31.00
2023-04-12T10:43:28.876Z,30.50
2023-04-12T10:46:53.792Z,30.60
2023-04-12T10:50:22.103Z,31.20
2023-04-12T10:53:28.626Z,31.20
2023-04-12T10:56:39.660Z,30.70
2023-04-12T10:59:59.208Z,31.60
2023-04-12T11:03:12.679Z,32.10
2023-04-12T11:06:27.019Z,32.50
2023-04-12T11:09:38.381Z,32.50
2023-04-12T11:12:42.802Z,33.30
2023-04-12T11:15:47.309Z,33.80
2023-04-12T11:18:50.559Z,33.60
2023-04-12T11:21:54.702Z,34.10
2023-04-12T11:24:59.221Z,34.50
2023-04-12T11:28:03.124Z,35.30
2023-04-12T11:31:08.768Z,35.10
2023-04-12T11:34:13.946Z,35.50
2023-04-12T11:37:21.711Z,35.40
2023-04-12T11:40:24.915Z,36.10
2023-04-12T11:43:28.079Z,35.80
2023-04-12T11:46:36.564Z,35.70
2023-04-12T11:49:45.441Z,36.50
2023-04-12T11:52:48.554Z,36.10
2023-04-12T11:55:51.984Z,35.40
2023-04-12T11:58:55.110Z,35.30
2023-04-12T12:02:00.897Z,35.30
2023-04-12T12:05:04.935Z,35.30
2023-04-12T12:08:09.416Z,34.50
2023-04-12T12:11:13.242Z,35.00
2023-04-12T12:14:20.370Z,35.50
2023-04-12T12:17:24.780Z,35.60
2023-04-12T12:20:28.010Z,35.50
2023-04-12T12:23:32.196Z,35.80
2023-04-12T12:26:37.084Z,34.30
2023-04-12T12:29:40.295Z,34.80
2023-04-12T12:32:45.742Z,34.40
2023-04-12T12:35:48.893Z,33.80
2023-04-12T12:38:54.588Z,33.90
2023-04-12T12:41:58.097Z,33.50
2023-04-12T12:45:01.226Z,33.70
2023-04-12T12:48:06.344Z,34.50
2023-04-12T12:51:10.195Z,33.90
2023-04-12T12:54:13.300Z,33.40
2023-04-12T12:57:16.401Z,33.40
2023-04-12T13:00:21.442Z,33.60
2023-04-12T13:03:26.162Z,33.10
2023-04-12T13:06:29.800Z,33.40
2023-04-12T13:09:33.607Z,33.00
2023-04-12T13:12:36.829Z,32.90
2023-04-12T13:15:39.984Z,33.10
2023-04-12T13:18:44.539Z,32.20
2023-04-12T13:21:47.901Z,32.50
2023-04-12T13:24:51.135Z,32.90
2023-04-12T13:27:54.500Z,33.30
2023-04-12T13:30:57.543Z,33.10
2023-04-12T13:34:02.148Z,32.80
2023-04-12T13:37:05.205Z,32.80
2023-04-12T13:40:09.238Z,33.40
2023-04-12T13:43:12.371Z,33.10
2023-04-12T13:46:15.636Z,33.60
2023-04-12T13:49:20.112Z,34.10
2023-04-12T13:52:23.447Z,34.00
2023-04-12T13:55:26.530Z,34.10
2023-04-12T13:58:29.687Z,34.00
2023-04-12T14:01:32.932Z,33.70
2023-04-12T14:04:37.614Z,33.90
2023-04-12T14:07:40.956Z,34.20
2023-04-12T14:10:44.365Z,33.70
2023-04-12T14:13:47.417Z,34.40
2023-04-12T14:16:51.859Z,34.60
2023-04-12T14:19:56.324Z,34.90
2023-04-12T14:22:59.402Z,35.00
2023-04-12T14:26:02.712Z,35.10
2023-04-12T14:29:06.138Z,35.60
2023-04-12T14:32:09.192Z,36.10
2023-04-12T14:35:13.659Z,36.60
2023-04-12T14:38:16.837Z,36.30
2023-04-12T14:41:19.960Z,35.60
2023-04-12T14:44:25.975Z,35.50
2023-04-12T14:47:29.565Z,36.10
2023-04-12T14:50:34.190Z,36.40
2023-04-12T14:53:37.379Z,36.80
2023-04-12T14:56:48.039Z,37.00
2023-04-12T14:59:52.806Z,36.90
2023-04-12T15:02:56.156Z,37.10
2023-04-12T15:06:00.777Z,37.10
2023-04-12T15:09:06.669Z,38.00
2023-04-12T15:12:09.962Z,37.80
2023-04-12T15:15:13.448Z,38.20
2023-04-12T15:18:16.657Z,38.30
2023-04-12T15:21:21.357Z,37.90
2023-04-12T15:24:25.150Z,37.70
2023-04-12T15:27:28.324Z,37.80
2023-04-12T15:30:31.904Z,37.80
2023-04-12T15:33:35.370Z,38.20
2023-04-12T15:36:43.111Z,38.00
2023-04-12T15:39:46.416Z,38.30
2023-04-12T15:42:49.575Z,38.50
2023-04-12T15:45:54.639Z,38.50
2023-04-12T15:48:58.904Z,38.20
2023-04-12T15:52:04.847Z,38.30
2023-04-12T15:55:11.693Z,38.50
2023-04-12T15:58:14.974Z,38.90
2023-04-12T16:01:18.327Z,39.00
2023-04-12T16:04:21.733Z,39.20
2023-04-12T16:07:26.338Z,39.90
2023-04-12T16:10:30.536Z,39.70
2023-04-12T16:13:34.014Z,39.70
2023-04-12T16:16:40.382Z,40.00
2023-04-12T16:19:43.704Z,40.20
2023-04-12T16:22:49.424Z,40.30
2023-04-12T16:25:52.511Z,40.40
2023-04-12T16:28:56.934Z,40.40
2023-04-12T16:32:00.712Z,40.30
2023-04-12T16:35:04.690Z,40.60
2023-04-12T16:38:09.134Z,40.60
2023-04-12T16:41:12.619Z,40.50
2023-04-12T16:44:19.726Z,40.40
2023-04-12T16:47:23.305Z,40.90
2023-04-12T16:50:28.341Z,40.90
2023-04-12T16:53:36.499Z,40.70
2023-04-12T16:56:39.914Z,40.70
2023-04-12T16:59:45.351Z,40.80
2023-04-12T17:02:51.399Z,40.90
2023-04-12T17:05:55.476Z,41.00
2023-04-12T17:09:02.694Z,41.50
2023-04-12T17:12:07.468Z,41.70
2023-04-12T17:15:13.869Z,42.30
2023-04-12T17:18:17.946Z,42.60
2023-04-12T17:21:22.860Z,43.30
2023-04-12T17:24:29.684Z,43.70
2023-04-12T17:27:39.120Z,44.10
2023-04-12T17:30:44.401Z,44.30
2023-04-12T17:33:48.501Z,44.40
2023-04-12T17:36:55.686Z,44.70
2023-04-12T17:40:01.219Z,45.10
2023-04-12T17:43:04.583Z,45.40
2023-04-12T17:46:08.013Z,45.60
2023-04-12T17:49:12.062Z,46.00
2023-04-12T17:52:17.700Z,46.30
2023-04-12T17:55:24.632Z,46.70
2023-04-12T17:58:28.946Z,46.90
2023-04-12T18:01:34.214Z,47.10
2023-04-12T18:04:41.733Z,47.90
2023-04-12T18:07:48.196Z,48.00
2023-04-12T18:10:53.763Z,48.30
2023-04-12T18:13:57.802Z,49.10
2023-04-12T18:17:01.592Z,49.20
2023-04-12T18:20:10.058Z,49.70
2023-04-12T18:23:13.609Z,50.20
2023-04-12T18:26:20.065Z,50.60
2023-04-12T18:29:25.690Z,50.80
2023-04-12T18:32:29.394Z,51.20
2023-04-12T18:35:34.401Z,51.80
2023-04-12T18:38:40.119Z,51.90
2023-04-12T18:41:45.177Z,52.20
2023-04-12T18:44:49.352Z,52.20
2023-04-12T18:47:54.095Z,52.20
2023-04-12T18:51:01.979Z,52.50
2023-04-12T18:54:10.748Z,52.70
2023-04-12T18:57:18.402Z,53.10
2023-04-12T19:00:23.065Z,53.70
2023-04-12T19:03:28.450Z,54.00
2023-04-12T19:06:32.740Z,54.00
2023-04-12T19:09:36.962Z,53.90
2023-04-12T19:12:43.196Z,54.10
2023-04-12T19:15:47.697Z,54.50
2023-04-12T19:18:51.511Z,54.20
2023-04-12T19:21:55.973Z,54.10
2023-04-12T19:25:02.093Z,54.50
2023-04-12T19:28:08.159Z,54.90
2023-04-12T19:31:14.616Z,55.50
2023-04-12T19:34:19.013Z,55.50
2023-04-12T19:37:24.335Z,55.50
2023-04-12T19:40:29.877Z,55.40
2023-04-12T19:43:36.798Z,55.50
2023-04-12T19:46:41.336Z,55.90
2023-04-12T19:49:45.447Z,56.00
2023-04-12T19:52:50.253Z,56.00
2023-04-12T19:55:58.642Z,56.00
2023-04-12T19:59:07.056Z,56.30
2023-04-12T20:02:12.476Z,56.20
2023-04-12T20:05:17.930Z,56.20
2023-04-12T20:08:23.236Z,56.40
2023-04-12T20:11:28.036Z,56.40
2023-04-12T20:14:36.789Z,56.60
2023-04-12T20:17:43.480Z,56.80
2023-04-12T20:20:49.039Z,57.10
2023-04-12T20:23:53.042Z,57.50
2023-04-12T20:26:59.590Z,57.60
2023-04-12T20:30:05.639Z,57.80
2023-04-12T20:33:09.626Z,57.80
2023-04-12T20:36:13.770Z,58.40
2023-04-12T20:39:21.201Z,58.50
2023-04-12T20:42:24.855Z,58.80
2023-04-12T20:45:30.123Z,59.00
2023-04-12T20:48:37.452Z,59.10
2023-04-12T20:51:41.366Z,59.60
2023-04-12T20:54:46.151Z,59.80
2023-04-12T20:57:49.764Z,59.80
2023-04-12T21:00:55.296Z,59.80
2023-04-12T21:03:59.844Z,60.30
2023-04-12T21:07:03.366Z,60.90
2023-04-12T21:10:08.674Z,61.50
2023-04-12T21:13:12.585Z,61.70
2023-04-12T21:16:17.564Z,62.10
2023-04-12T21:19:20.709Z,62.20
2023-04-12T21:22:23.983Z,62.60
2023-04-12T21:25:27.186Z,62.90
2023-04-12T21:28:31.077Z,62.80
2023-04-12T21:31:37.493Z,63.10
2023-04-12T21:34:40.784Z,63.40
2023-04-12T21:37:43.866Z,63.20
2023-04-12T21:40:47.445Z,63.40
2023-04-12T21:43:50.551Z,63.90
2023-04-12T21:46:55.061Z,63.80
2023-04-12T21:49:58.499Z,63.90
2023-04-12T21:53:01.658Z,63.90
2023-04-12T21:56:05.213Z,64.00
2023-04-12T21:59:08.344Z,64.30
2023-04-12T22:02:13.651Z,64.30
2023-04-12T22:05:16.856Z,64.60
2023-04-12T22:08:20.701Z,64.80
2023-04-12T22:11:23.830Z,65.10
2023-04-12T22:14:28.786Z,65.60
2023-04-12T22:17:33.709Z,65.90
2023-04-12T22:20:36.857Z,66.10
2023-04-12T22:23:40.688Z,66.10
2023-04-12T22:26:43.978Z,66.30
2023-04-12T22:29:49.811Z,66.80
2023-04-12T22:32:58.054Z,66.80
2023-04-12T22:36:02.268Z,66.70
2023-04-12T22:39:05.939Z,66.80
2023-04-12T22:42:09.027Z,67.30
2023-04-12T22:45:13.259Z,67.90
2023-04-12T22:48:20.259Z,67.60
2023-04-12T22:51:27.352Z,66.70
2023-04-12T22:54:30.587Z,66.90
2023-04-12T22:57:35.085Z,66.80
2023-04-12T23:00:39.382Z,66.90
2023-04-12T23:03:44.757Z,66.90
2023-04-12T23:06:55.148Z,66.70
2023-04-12T23:09:58.643Z,67.40
2023-04-12T23:13:01.756Z,67.10
2023-04-12T23:16:05.945Z,67.30
2023-04-12T23:19:10.569Z,67.60
2023-04-12T23:22:44.388Z,68.80
2023-04-12T23:25:59.583Z,69.00
2023-04-12T23:29:03.613Z,69.30
2023-04-12T23:32:07.251Z,69.70
2023-04-12T23:35:12.282Z,70.70
2023-04-12T23:38:23.299Z,71.10
2023-04-12T23:41:27.282Z,71.70
2023-04-12T23:44:32.302Z,71.80
2023-04-12T23:47:35.524Z,71.20
2023-04-12T23:50:40.676Z,71.30
2023-04-12T23:53:44.984Z,71.30
2023-04-12T23:56:48.120Z,71.20
2023-04-12T23:59:51.660Z,71.10
